createdAt,value
2023-05-25T00:02:16.791Z,102426.28
2023-05-25T00:04:48.522Z,102431.94
2023-05-25T00:07:16.297Z,102441.84
2023-05-25T00:09:46.514Z,102446.47
2023-05-25T00:12:16.418Z,102450.03
2023-05-25T00:14:44.083Z,102444.94
2023-05-25T00:17:11.931Z,102449.88
2023-05-25T00:19:42.439Z,102449.19
2023-05-25T00:22:10.495Z,102456.66
2023-05-25T00:24:39.034Z,102449.47
2023-05-25T00:27:07.596Z,102454.31
2023-05-25T00:29:36.588Z,102459.00
2023-05-25T00:32:04.859Z,102460.53
2023-05-25T00:34:32.654Z,102458.00
2023-05-25T00:37:01.625Z,102459.44
2023-05-25T00:39:29.284Z,102457.47
2023-05-25T00:41:58.214Z,102455.94
2023-05-25T00:44:25.919Z,102462.94
2023-05-25T00:46:54.865Z,102456.66
2023-05-25T00:49:23.498Z,102465.91
2023-05-25T00:51:53.650Z,102465.91
2023-05-25T00:54:22.910Z,102467.91
2023-05-25T00:56:54.136Z,102462.88
2023-05-25T00:59:30.878Z,102466.13
2023-05-25T01:02:03.321Z,102464.06
2023-05-25T01:04:33.805Z,102471.63
2023-05-25T01:07:03.971Z,102469.69
2023-05-25T01:09:35.861Z,102471.63
2023-05-25T01:12:04.173Z,102478.50
2023-05-25T01:14:32.422Z,102475.53
2023-05-25T01:17:00.798Z,102487.31
2023-05-25T01:19:28.520Z,102486.03
2023-05-25T01:22:04.873Z,102488.72
2023-05-25T01:24:41.011Z,102483.84
2023-05-25T01:27:15.664Z,102483.44
2023-05-25T01:29:46.044Z,102486.53
2023-05-25T01:32:14.795Z,102494.94
2023-05-25T01:34:44.462Z,102496.44
2023-05-25T01:37:14.393Z,102497.16
2023-05-25T01:39:42.338Z,102483.84
2023-05-25T01:42:10.051Z,102490.16
2023-05-25T01:44:39.429Z,102489.47
2023-05-25T01:47:11.693Z,102493.00
2023-05-25T01:49:47.577Z,102482.06
2023-05-25T01:52:23.252Z,102484.19
2023-05-25T01:54:54.522Z,102481.09
2023-05-25T01:57:23.195Z,102481.94
2023-05-25T01:59:53.530Z,102481.84
2023-05-25T02:02:21.927Z,102478.88
2023-05-25T02:04:50.805Z,102492.19
2023-05-25T02:07:20.234Z,102498.78
2023-05-25T02:09:47.879Z,102498.78
2023-05-25T02:12:15.598Z,102500.50
2023-05-25T02:14:43.322Z,102497.56
2023-05-25T02:17:12.858Z,102501.19
2023-05-25T02:19:40.619Z,102500.78
2023-05-25T02:22:08.243Z,102496.97
2023-05-25T02:24:38.064Z,102498.78
2023-05-25T02:27:06.455Z,102502.16
2023-05-25T02:29:34.072Z,102499.09
2023-05-25T02:32:01.717Z,102503.44
2023-05-25T02:34:29.829Z,102502.59
2023-05-25T02:36:57.467Z,102502.88
2023-05-25T02:39:27.664Z,102504.84
2023-05-25T02:41:56.641Z,102502.75
2023-05-25T02:44:24.314Z,102500.22
2023-05-25T02:46:52.207Z,102508.38
2023-05-25T02:49:19.860Z,102511.84
2023-05-25T02:51:47.493Z,102507.34
2023-05-25T02:54:15.272Z,102510.56
2023-05-25T02:56:43.361Z,102509.72
2023-05-25T02:59:12.327Z,102511.72
2023-05-25T03:01:40.621Z,102506.09
2023-05-25T03:04:08.311Z,102510.56
2023-05-25T03:06:36.540Z,102513.41
2023-05-25T03:09:05.055Z,102521.38
2023-05-25T03:11:32.685Z,102516.88
2023-05-25T03:14:00.488Z,102515.47
2023-05-25T03:16:29.518Z,102519.50
2023-05-25T03:18:57.417Z,102521.50
2023-05-25T03:21:25.149Z,102524.72
2023-05-25T03:23:52.786Z,102528.06
2023-05-25T03:26:20.481Z,102531.09
2023-05-25T03:28:48.370Z,102522.69
2023-05-25T03:31:16.044Z,102523.81
2023-05-25T03:33:45.045Z,102517.16
2023-05-25T03:36:13.681Z,102526.59
2023-05-25T03:38:41.325Z,102520.28
2023-05-25T03:41:08.953Z,102523.19
2023-05-25T03:43:36.728Z,102511.94
2023-05-25T03:46:04.909Z,102518.91
2023-05-25T03:48:32.534Z,102516.91
2023-05-25T03:51:01.584Z,102526.25
2023-05-25T03:53:29.567Z,102524.66
2023-05-25T03:55:57.187Z,102513.41
2023-05-25T03:58:24.816Z,102511.56
2023-05-25T04:00:52.711Z,102514.41
2023-05-25T04:03:20.675Z,102511.31
2023-05-25T04:05:48.750Z,102514.75
2023-05-25T04:08:18.911Z,102511.25
2023-05-25T04:10:46.890Z,102516.94
2023-05-25T04:13:15.027Z,102513.13
2023-05-25T04:15:42.885Z,102522.88
2023-05-25T04:18:10.820Z,102520.63
2023-05-25T04:20:38.558Z,102528.09
2023-05-25T04:23:06.178Z,102525.31
2023-05-25T04:25:35.154Z,102524.78
2023-05-25T04:28:02.751Z,102513.69
2023-05-25T04:30:31.445Z,102506.72
2023-05-25T04:33:02.778Z,102492.03
2023-05-25T04:35:31.522Z,102489.78
2023-05-25T04:38:00.705Z,102495.44
2023-05-25T04:40:28.338Z,102491.19
2023-05-25T04:42:57.357Z,102491.75
2023-05-25T04:45:25.054Z,102493.91
2023-05-25T04:47:53.012Z,102500.19
2023-05-25T04:50:20.924Z,102493.03
2023-05-25T04:52:48.726Z,102501.56
2023-05-25T04:55:16.779Z,102497.19
2023-05-25T04:57:44.372Z,102495.56
2023-05-25T05:00:15.211Z,102503.44
2023-05-25T05:02:44.119Z,102496.94
2023-05-25T05:05:11.818Z,102492.66
2023-05-25T05:07:39.571Z,102493.41
2023-05-25T05:10:08.275Z,102502.94
2023-05-25T05:12:35.898Z,102500.84
2023-05-25T05:15:03.594Z,102505.06
2023-05-25T05:17:32.654Z,102498.72
2023-05-25T05:20:00.455Z,102497.81
2023-05-25T05:22:28.212Z,102500.22
2023-05-25T05:24:56.348Z,102513.44
2023-05-25T05:27:23.985Z,102508.88
2023-05-25T05:29:51.615Z,102513.25
2023-05-25T05:32:19.539Z,102512.59
2023-05-25T05:34:48.611Z,102506.00
2023-05-25T05:37:16.241Z,102512.66
2023-05-25T05:39:44.063Z,102509.03
2023-05-25T05:42:11.687Z,102516.28
2023-05-25T05:44:39.303Z,102516.31
2023-05-25T05:47:07.111Z,102522.09
2023-05-25T05:49:37.847Z,102505.88
2023-05-25T05:52:07.340Z,102524.38
2023-05-25T05:54:34.937Z,102520.16
2023-05-25T05:57:03.355Z,102526.13
2023-05-25T05:59:30.943Z,102524.53
2023-05-25T06:01:58.946Z,102528.81
2023-05-25T06:04:29.001Z,102519.16
2023-05-25T06:06:57.128Z,102529.03
2023-05-25T06:09:27.190Z,102528.84
2023-05-25T06:11:54.857Z,102531.34
2023-05-25T06:14:22.525Z,102532.47
2023-05-25T06:16:51.228Z,102530.41
2023-05-25T06:19:19.016Z,102526.56
2023-05-25T06:21:46.675Z,102538.09
2023-05-25T06:24:16.137Z,102544.25
2023-05-25T06:26:45.246Z,102546.63
2023-05-25T06:29:15.394Z,102548.16
2023-05-25T06:31:44.554Z,102542.06
2023-05-25T06:34:12.192Z,102554.72
2023-05-25T06:36:41.626Z,102545.41
2023-05-25T06:39:09.550Z,102552.88
2023-05-25T06:41:40.444Z,102546.41
2023-05-25T06:44:09.772Z,102545.00
2023-05-25T06:46:38.784Z,102547.56
2023-05-25T06:49:06.661Z,102551.81
2023-05-25T06:51:34.265Z,102539.19
2023-05-25T06:54:02.163Z,102546.34
2023-05-25T06:56:30.265Z,102532.06
2023-05-25T06:58:57.904Z,102545.00
2023-05-25T07:01:26.947Z,102550.19
2023-05-25T07:03:55.400Z,102543.09
2023-05-25T07:06:23.030Z,102545.19
2023-05-25T07:08:50.672Z,102546.19
2023-05-25T07:11:20.655Z,102552.13
2023-05-25T07:13:48.572Z,102558.69
2023-05-25T07:16:16.431Z,102562.84
2023-05-25T07:18:45.627Z,102555.59
2023-05-25T07:21:13.317Z,102562.25
2023-05-25T07:23:41.470Z,102578.00
2023-05-25T07:26:09.457Z,102573.88
2023-05-25T07:28:37.154Z,102573.88
2023-05-25T07:31:04.842Z,102570.34
2023-05-25T07:33:32.469Z,102580.75
2023-05-25T07:36:01.409Z,102572.03
2023-05-25T07:38:29.037Z,102577.59
2023-05-25T07:40:56.757Z,102583.66
2023-05-25T07:43:24.775Z,102581.34
2023-05-25T07:45:52.533Z,102593.69
2023-05-25T07:48:20.371Z,102578.47
2023-05-25T07:50:48.014Z,102579.47
2023-05-25T07:53:16.967Z,102583.41
2023-05-25T07:55:44.877Z,102591.31
2023-05-25T07:58:12.642Z,102591.53
2023-05-25T08:00:40.285Z,102600.03
2023-05-25T08:03:08.024Z,102594.63
2023-05-25T08:05:35.779Z,102593.84
2023-05-25T08:08:03.830Z,102598.13
2023-05-25T08:10:32.983Z,102601.38
2023-05-25T08:13:00.584Z,102592.72
2023-05-25T08:15:28.457Z,102609.91
2023-05-25T08:17:57.029Z,102603.56
2023-05-25T08:20:25.636Z,102607.59
2023-05-25T08:22:54.837Z,102607.28
2023-05-25T08:25:22.486Z,102618.31
2023-05-25T08:27:51.862Z,102616.66
2023-05-25T08:30:19.570Z,102611.81
2023-05-25T08:32:47.436Z,102620.09
2023-05-25T08:35:15.477Z,102618.00
2023-05-25T08:37:43.643Z,102608.69
2023-05-25T08:40:15.992Z,102613.41
2023-05-25T08:42:44.439Z,102615.09
2023-05-25T08:45:26.549Z,102621.06
2023-05-25T08:48:02.444Z,102621.47
2023-05-25T08:50:31.938Z,102624.28
2023-05-25T08:53:03.663Z,102611.84
2023-05-25T08:55:38.692Z,102622.81
2023-05-25T08:58:16.186Z,102636.31
2023-05-25T09:00:51.070Z,102645.72
2023-05-25T09:03:19.154Z,102639.22
2023-05-25T09:05:48.136Z,102641.16
2023-05-25T09:08:16.614Z,102641.84
2023-05-25T09:10:44.496Z,102635.06
2023-05-25T09:15:42.878Z,102635.63
2023-05-25T09:18:13.080Z,102639.38
2023-05-25T09:20:44.265Z,102640.09
2023-05-25T09:23:15.508Z,102644.00
2023-05-25T09:25:44.781Z,102637.31
2023-05-25T09:28:26.476Z,102632.50
2023-05-25T09:30:55.392Z,102638.72
2023-05-25T09:33:24.455Z,102637.66
2023-05-25T09:35:52.626Z,102632.63
2023-05-25T09:38:20.825Z,102637.13
2023-05-25T09:40:48.981Z,102645.91
2023-05-25T09:43:28.260Z,102633.19
2023-05-25T09:46:00.564Z,102638.44
2023-05-25T09:48:30.372Z,102636.78
2023-05-25T09:50:58.399Z,102647.19
2023-05-25T09:53:27.632Z,102644.50
2023-05-25T09:55:55.244Z,102649.59
2023-05-25T09:58:23.791Z,102640.38
2023-05-25T10:00:54.474Z,102642.25
2023-05-25T10:03:22.495Z,102638.13
2023-05-25T10:05:53.091Z,102644.03
2023-05-25T10:08:23.412Z,102650.50
2023-05-25T10:10:51.479Z,102644.38
2023-05-25T10:13:22.327Z,102635.00
2023-05-25T10:15:55.205Z,102653.53
2023-05-25T10:18:26.671Z,102650.09
2023-05-25T10:21:02.429Z,102646.66
2023-05-25T10:23:36.687Z,102637.09
2023-05-25T10:26:07.610Z,102647.34
2023-05-25T10:28:38.123Z,102640.38
2023-05-25T10:31:06.910Z,102646.88
2023-05-25T10:33:34.899Z,102651.81
2023-05-25T10:36:10.777Z,102652.94
2023-05-25T10:38:41.181Z,102638.72
2023-05-25T10:41:10.988Z,102641.56
2023-05-25T10:43:39.866Z,102642.25
2023-05-25T10:46:08.580Z,102648.78
2023-05-25T10:48:39.351Z,102646.72
2023-05-25T10:51:11.808Z,102641.63
2023-05-25T10:53:40.113Z,102646.22
2023-05-25T10:56:10.534Z,102648.94
2023-05-25T10:58:43.282Z,102633.59
2023-05-25T11:01:13.809Z,102636.94
2023-05-25T11:03:58.117Z,102639.44
2023-05-25T11:07:08.400Z,102642.75
2023-05-25T11:09:43.620Z,102638.56
2023-05-25T11:12:21.792Z,102638.59
2023-05-25T11:15:16.536Z,102636.72
2023-05-25T11:17:59.864Z,102639.00
2023-05-25T11:20:30.014Z,102633.78
2023-05-25T11:23:25.307Z,102627.38
2023-05-25T11:25:52.978Z,102626.13
2023-05-25T11:28:23.808Z,102629.84
2023-05-25T11:30:52.074Z,102619.53
2023-05-25T11:33:22.281Z,102618.25
2023-05-25T11:35:50.150Z,102620.63
2023-05-25T11:38:19.146Z,102616.84
2023-05-25T11:40:48.527Z,102621.47
2023-05-25T11:43:17.034Z,102619.25
2023-05-25T11:45:45.400Z,102624.84
2023-05-25T11:48:14.560Z,102620.06
2023-05-25T11:50:42.450Z,102623.94
2023-05-25T11:53:10.800Z,102611.19
2023-05-25T11:55:41.085Z,102613.38
2023-05-25T11:58:08.743Z,102602.88
2023-05-25T12:00:36.490Z,102599.19
2023-05-25T12:03:05.613Z,102602.78
2023-05-25T12:05:39.554Z,102601.56
2023-05-25T12:08:07.284Z,102602.72
2023-05-25T12:10:34.950Z,102602.84
2023-05-25T12:13:04.566Z,102603.03
2023-05-25T12:15:32.261Z,102605.66
2023-05-25T12:18:00.113Z,102600.53
2023-05-25T12:20:28.180Z,102593.50
2023-05-25T12:22:55.944Z,102590.50
2023-05-25T12:25:24.453Z,102593.56
2023-05-25T12:28:14.990Z,102592.69
2023-05-25T12:30:43.117Z,102590.81
2023-05-25T12:33:15.549Z,102592.06
2023-05-25T12:35:47.730Z,102587.22
2023-05-25T12:38:17.503Z,102581.78
2023-05-25T12:40:45.904Z,102592.31
2023-05-25T12:43:17.447Z,102587.59
2023-05-25T12:45:45.482Z,102584.78
2023-05-25T12:48:13.274Z,102598.25
2023-05-25T12:50:57.774Z,102597.50
2023-05-25T12:53:27.142Z,102590.72
2023-05-25T12:56:02.697Z,102588.34
2023-05-25T12:58:31.774Z,102584.28
2023-05-25T13:00:59.809Z,102585.28
2023-05-25T13:03:27.738Z,102586.66
2023-05-25T13:06:02.280Z,102589.97
2023-05-25T13:08:30.268Z,102582.16
2023-05-25T13:10:58.136Z,102589.81
2023-05-25T13:13:25.858Z,102595.06
2023-05-25T13:15:54.920Z,102581.72
2023-05-25T13:18:22.695Z,102589.41
2023-05-25T13:20:52.625Z,102590.75
2023-05-25T13:23:22.102Z,102577.88
2023-05-25T13:25:49.817Z,102595.34
2023-05-25T13:28:17.504Z,102590.56
2023-05-25T13:30:45.277Z,102587.03
2023-05-25T13:33:14.463Z,102586.31
2023-05-25T13:35:57.852Z,102589.00
2023-05-25T13:38:25.839Z,102576.19
2023-05-25T13:40:53.449Z,102571.53
2023-05-25T13:43:21.100Z,102577.81
2023-05-25T13:45:49.045Z,102577.78
2023-05-25T13:48:18.179Z,102577.28
2023-05-25T13:50:46.145Z,102566.09
2023-05-25T13:53:14.443Z,102560.19
2023-05-25T13:55:42.106Z,102556.41
2023-05-25T13:58:10.150Z,102569.16
2023-05-25T14:00:37.896Z,102565.34
2023-05-25T14:03:06.461Z,102561.13
2023-05-25T14:05:35.552Z,102564.19
2023-05-25T14:08:04.921Z,102558.47
2023-05-25T14:10:33.255Z,102559.94
2023-05-25T14:13:00.939Z,102563.13
2023-05-25T14:15:28.595Z,102557.06
2023-05-25T14:17:57.599Z,102558.75
2023-05-25T14:20:26.649Z,102568.06
2023-05-25T14:22:56.211Z,102564.00
2023-05-25T14:25:24.029Z,102568.16
2023-05-25T14:27:51.676Z,102567.38
2023-05-25T14:30:19.499Z,102566.44
2023-05-25T14:32:47.217Z,102559.50
2023-05-25T14:35:15.023Z,102552.28
2023-05-25T14:37:42.636Z,102561.09
2023-05-25T14:40:13.060Z,102563.63
2023-05-25T14:42:40.740Z,102557.47
2023-05-25T14:45:11.086Z,102563.72
2023-05-25T14:47:40.765Z,102563.75
2023-05-25T14:50:09.334Z,102558.78
2023-05-25T14:52:37.313Z,102556.69
2023-05-25T14:55:05.431Z,102566.78
2023-05-25T14:57:34.411Z,102564.81
2023-05-25T15:00:02.203Z,102564.09
2023-05-25T15:02:30.328Z,102568.16
2023-05-25T15:04:58.610Z,102566.25
2023-05-25T15:07:27.078Z,102568.56
2023-05-25T15:09:54.771Z,102566.50
2023-05-25T15:12:22.738Z,102570.53
2023-05-25T15:14:51.887Z,102562.31
2023-05-25T15:17:19.578Z,102562.41
2023-05-25T15:19:47.186Z,102566.59
2023-05-25T15:22:15.029Z,102563.81
2023-05-25T15:24:42.733Z,102562.44
2023-05-25T15:27:11.116Z,102558.41
2023-05-25T15:29:38.732Z,102560.31
2023-05-25T15:32:10.205Z,102558.81
2023-05-25T15:34:37.945Z,102562.72
2023-05-25T15:37:06.073Z,102556.84
2023-05-25T15:39:34.080Z,102558.44
2023-05-25T15:42:02.058Z,102552.50
2023-05-25T15:44:30.202Z,102561.34
2023-05-25T15:46:58.243Z,102550.03
2023-05-25T15:49:27.241Z,102561.47
2023-05-25T15:51:54.872Z,102558.81
2023-05-25T15:54:22.562Z,102558.66
2023-05-25T15:56:50.265Z,102559.09
2023-05-25T15:59:17.946Z,102564.75
2023-05-25T16:01:45.714Z,102559.19
2023-05-25T16:04:13.547Z,102563.50
2023-05-25T16:06:42.575Z,102557.34
2023-05-25T16:09:10.497Z,102558.94
2023-05-25T16:11:38.116Z,102565.28
2023-05-25T16:14:05.814Z,102564.94
2023-05-25T16:16:33.492Z,102558.69
2023-05-25T16:19:01.539Z,102562.66
2023-05-25T16:21:29.232Z,102561.19
2023-05-25T16:23:58.214Z,102564.94
2023-05-25T16:26:26.515Z,102561.41
2023-05-25T16:28:54.134Z,102560.34
2023-05-25T16:31:21.817Z,102560.34
2023-05-25T16:33:49.531Z,102563.28
2023-05-25T16:36:17.151Z,102568.28
2023-05-25T16:38:45.736Z,102564.53
2023-05-25T16:41:14.979Z,102570.97
2023-05-25T16:43:42.607Z,102575.31
2023-05-25T16:46:10.374Z,102574.28
2023-05-25T16:48:38.097Z,102581.28
2023-05-25T16:51:06.279Z,102587.06
2023-05-25T16:53:34.085Z,102578.09
2023-05-25T16:56:01.709Z,102584.34
2023-05-25T16:58:30.938Z,102576.78
2023-05-25T17:00:58.809Z,102586.53
2023-05-25T17:03:26.656Z,102582.56
2023-05-25T17:05:54.478Z,102586.06
2023-05-25T17:08:22.092Z,102590.94
2023-05-25T17:10:50.113Z,102595.66
2023-05-25T17:13:18.341Z,102594.41
2023-05-25T17:15:47.831Z,102601.91
2023-05-25T17:18:15.756Z,102603.84
2023-05-25T17:20:43.656Z,102606.06
2023-05-25T17:23:11.472Z,102604.44
2023-05-25T17:25:39.401Z,102605.19
2023-05-25T17:28:07.281Z,102602.03
2023-05-25T17:30:35.004Z,102606.88
2023-05-25T17:33:04.049Z,102613.00
2023-05-25T17:35:32.037Z,102619.91
2023-05-25T17:37:59.698Z,102612.09
2023-05-25T17:40:27.320Z,102627.31
2023-05-25T17:42:54.986Z,102618.69
2023-05-25T17:45:22.613Z,102611.75
2023-05-25T17:47:50.416Z,102609.91
2023-05-25T17:50:19.519Z,102615.38
2023-05-25T17:52:47.214Z,102622.19
2023-05-25T17:55:15.258Z,102624.34
2023-05-25T17:57:42.833Z,102627.81
2023-05-25T18:00:11.401Z,102630.06
2023-05-25T18:02:39.359Z,102635.88
2023-05-25T18:05:08.546Z,102656.66
2023-05-25T18:07:37.471Z,102646.28
2023-05-25T18:10:05.612Z,102644.69
2023-05-25T18:12:33.349Z,102649.16
2023-05-25T18:15:01.311Z,102647.19
2023-05-25T18:17:29.100Z,102654.06
2023-05-25T18:19:57.104Z,102659.53
2023-05-25T18:22:24.993Z,102654.88
2023-05-25T18:24:53.978Z,102663.19
2023-05-25T18:27:21.625Z,102669.81
2023-05-25T18:29:49.474Z,102661.16
2023-05-25T18:32:17.126Z,102663.38
2023-05-25T18:34:45.455Z,102662.22
2023-05-25T18:37:13.113Z,102663.91
2023-05-25T18:39:40.826Z,102675.16
2023-05-25T18:42:10.127Z,102667.50
2023-05-25T18:44:37.893Z,102675.63
2023-05-25T18:47:05.961Z,102665.97
2023-05-25T18:49:34.638Z,102673.09
2023-05-25T18:52:02.455Z,102676.72
2023-05-25T18:54:30.417Z,102680.16
2023-05-25T18:56:58.757Z,102684.59
2023-05-25T18:59:27.806Z,102686.75
2023-05-25T19:01:55.872Z,102687.75
2023-05-25T19:04:23.707Z,102695.84
2023-05-25T19:06:51.388Z,102694.50
2023-05-25T19:09:19.077Z,102696.50
2023-05-25T19:11:46.778Z,102692.41
2023-05-25T19:14:14.505Z,102701.63
2023-05-25T19:16:43.777Z,102696.97
2023-05-25T19:19:11.591Z,102695.34
2023-05-25T19:21:39.190Z,102700.22
2023-05-25T19:24:09.706Z,102701.69
2023-05-25T19:26:37.789Z,102702.72
2023-05-25T19:29:05.642Z,102704.38
2023-05-25T19:31:33.346Z,102704.97
2023-05-25T19:34:03.383Z,102708.63
2023-05-25T19:36:31.061Z,102700.03
2023-05-25T19:38:58.851Z,102712.56
2023-05-25T19:41:26.587Z,102717.72
2023-05-25T19:43:54.214Z,102718.66
2023-05-25T19:46:22.412Z,102728.03
2023-05-25T19:48:50.024Z,102720.97
2023-05-25T19:51:19.041Z,102723.41
2023-05-25T19:53:48.921Z,102723.72
2023-05-25T19:56:16.589Z,102728.63
2023-05-25T19:58:44.274Z,102726.28
2023-05-25T20:01:12.110Z,102727.53
2023-05-25T20:03:39.974Z,102730.38
2023-05-25T20:06:08.182Z,102727.47
2023-05-25T20:08:37.698Z,102725.53
2023-05-25T20:11:05.553Z,102727.00
2023-05-25T20:13:33.876Z,102734.47
2023-05-25T20:16:01.590Z,102742.31
2023-05-25T20:18:29.328Z,102736.06
2023-05-25T20:20:57.042Z,102742.16
2023-05-25T20:23:24.675Z,102748.63
2023-05-25T20:25:53.878Z,102743.72
2023-05-25T20:28:21.768Z,102755.56
2023-05-25T20:30:49.871Z,102764.72
2023-05-25T20:33:17.676Z,102767.63
2023-05-25T20:35:45.609Z,102768.66
2023-05-25T20:38:13.708Z,102773.91
2023-05-25T20:40:41.684Z,102779.16
2023-05-25T20:43:10.870Z,102782.97
2023-05-25T20:45:39.107Z,102782.47
2023-05-25T20:48:07.396Z,102784.84
2023-05-25T20:50:35.492Z,102782.94
2023-05-25T20:53:03.604Z,102788.00
2023-05-25T20:55:31.562Z,102788.72
2023-05-25T20:58:00.963Z,102783.28
2023-05-25T21:00:30.138Z,102795.09
2023-05-25T21:02:58.286Z,102791.72
2023-05-25T21:05:26.282Z,102792.44
2023-05-25T21:07:55.293Z,102803.56
2023-05-25T21:10:23.114Z,102792.34
2023-05-25T21:12:51.078Z,102798.81
2023-05-25T21:15:19.189Z,102798.81
2023-05-25T21:17:48.265Z,102793.75
2023-05-25T21:20:16.342Z,102797.66
2023-05-25T21:22:44.594Z,102803.56
2023-05-25T21:25:12.300Z,102803.56
2023-05-25T21:27:40.257Z,102803.28
2023-05-25T21:30:09.154Z,102800.78
2023-05-25T21:32:37.233Z,102809.63
2023-05-25T21:35:06.981Z,102813.41
2023-05-25T21:37:34.766Z,102810.88
2023-05-25T21:40:02.727Z,102815.94
2023-05-25T21:42:30.772Z,102805.16
2023-05-25T21:44:58.910Z,102813.81
2023-05-25T21:47:26.987Z,102817.22
2023-05-25T21:49:57.409Z,102807.09
2023-05-25T21:52:26.744Z,102817.63
2023-05-25T21:54:55.684Z,102816.91
2023-05-25T21:57:23.651Z,102821.66
2023-05-25T21:59:51.861Z,102829.50
2023-05-25T22:02:20.073Z,102812.28
2023-05-25T22:04:47.792Z,102818.44
2023-05-25T22:07:15.854Z,102814.25
2023-05-25T22:09:45.700Z,102824.72
2023-05-25T22:12:13.841Z,102824.88
2023-05-25T22:14:41.933Z,102827.38
2023-05-25T22:17:10.015Z,102821.63
2023-05-25T22:19:38.111Z,102824.28
2023-05-25T22:22:06.256Z,102827.66
2023-05-25T22:24:34.572Z,102833.94
2023-05-25T22:27:03.874Z,102838.00
2023-05-25T22:29:31.951Z,102831.13
2023-05-25T22:31:59.677Z,102825.34
2023-05-25T22:34:27.251Z,102830.66
2023-05-25T22:36:54.894Z,102832.34
2023-05-25T22:39:22.512Z,102827.16
2023-05-25T22:41:50.610Z,102826.72
2023-05-25T22:44:19.635Z,102824.59
2023-05-25T22:46:47.502Z,102838.19
2023-05-25T22:49:15.457Z,102834.81
2023-05-25T22:51:43.116Z,102831.56
2023-05-25T22:54:10.878Z,102825.94
2023-05-25T22:56:38.534Z,102827.91
2023-05-25T22:59:06.367Z,102827.22
2023-05-25T23:01:35.441Z,102832.78
2023-05-25T23:04:03.211Z,102835.84
2023-05-25T23:06:31.137Z,102836.69
2023-05-25T23:08:58.894Z,102840.31
2023-05-25T23:11:27.081Z,102847.84
2023-05-25T23:13:55.576Z,102844.59
2023-05-25T23:16:23.626Z,102836.88
2023-05-25T23:18:52.732Z,102845.53
2023-05-25T23:21:20.381Z,102847.59
2023-05-25T23:23:48.085Z,102849.06
2023-05-25T23:26:16.337Z,102844.16
2023-05-25T23:28:44.054Z,102843.41
2023-05-25T23:31:11.857Z,102855.03
2023-05-25T23:33:39.485Z,102845.38
2023-05-25T23:36:09.738Z,102844.41
2023-05-25T23:38:37.572Z,102843.13
2023-05-25T23:41:06.026Z,102845.28
2023-05-25T23:43:33.708Z,102838.91
2023-05-25T23:46:02.495Z,102840.56
2023-05-25T23:48:30.307Z,102847.25
2023-05-25T23:50:57.980Z,102845.00
2023-05-25T23:53:27.004Z,102848.03
2023-05-25T23:55:54.611Z,102842.44
2023-05-25T23:58:22.249Z,102846.47
